createdAt,value
2022-12-31T00:02:04.662Z,3.29
2022-12-31T00:07:07.406Z,3.40
2022-12-31T00:12:10.099Z,3.52
2022-12-31T00:17:12.781Z,3.58
2022-12-31T00:22:15.436Z,3.61
2022-12-31T00:27:18.347Z,3.62
2022-12-31T00:32:21.016Z,3.66
2022-12-31T00:37:23.666Z,3.71
2022-12-31T00:42:26.365Z,3.79
2022-12-31T00:47:29.061Z,3.91
2022-12-31T00:52:31.749Z,4.02
2022-12-31T00:57:34.447Z,4.03
2022-12-31T01:02:37.300Z,3.99
2022-12-31T01:07:40.079Z,3.97
2022-12-31T01:12:42.753Z,3.96
2022-12-31T01:17:45.495Z,3.99
2022-12-31T01:22:48.176Z,3.97
2022-12-31T01:27:50.795Z,3.97
2022-12-31T01:32:53.449Z,3.99
2022-12-31T01:37:56.095Z,3.98
2022-12-31T01:42:58.839Z,4.01
2022-12-31T01:48:03.944Z,4.20
2022-12-31T01:53:08.510Z,4.42
2022-12-31T01:58:18.715Z,4.54
2022-12-31T02:03:23.500Z,4.56
2022-12-31T02:08:26.498Z,4.53
2022-12-31T02:13:29.208Z,4.45
2022-12-31T02:18:37.921Z,4.41
2022-12-31T02:23:45.549Z,4.41
2022-12-31T02:28:54.323Z,4.42
2022-12-31T02:34:13.091Z,4.44
2022-12-31T02:39:16.616Z,4.50
2022-12-31T02:44:24.919Z,4.70
2022-12-31T02:49:37.265Z,5.04
2022-12-31T02:54:45.025Z,5.29
2022-12-31T02:59:59.830Z,5.47
2022-12-31T03:05:03.911Z,5.67
2022-12-31T03:10:07.451Z,5.78
2022-12-31T03:15:20.467Z,5.86
2022-12-31T03:20:49.000Z,5.98
2022-12-31T03:25:53.352Z,6.09
2022-12-31T03:31:01.479Z,6.17
2022-12-31T03:36:13.836Z,6.27
2022-12-31T03:41:16.486Z,6.36
2022-12-31T03:46:19.239Z,6.44
2022-12-31T03:51:22.171Z,6.50
2022-12-31T03:56:25.034Z,6.54
2022-12-31T04:01:27.741Z,6.54
2022-12-31T04:06:30.551Z,6.52
2022-12-31T04:11:33.263Z,6.53
2022-12-31T04:16:35.935Z,6.55
2022-12-31T04:21:38.708Z,6.57
2022-12-31T04:26:42.480Z,6.55
2022-12-31T04:31:45.265Z,6.55
2022-12-31T04:36:48.124Z,6.56
2022-12-31T04:41:51.248Z,6.52
2022-12-31T04:46:53.978Z,6.45
2022-12-31T04:51:56.656Z,6.34
2022-12-31T04:56:59.545Z,6.16
2022-12-31T05:02:02.399Z,6.00
2022-12-31T05:07:05.329Z,5.92
2022-12-31T05:12:07.991Z,5.87
2022-12-31T05:17:10.649Z,5.85
2022-12-31T05:22:16.296Z,5.84
2022-12-31T05:27:18.924Z,5.84
2022-12-31T05:32:21.671Z,5.81
2022-12-31T05:37:24.376Z,5.77
2022-12-31T05:42:27.360Z,5.80
2022-12-31T05:47:30.004Z,5.85
2022-12-31T05:52:32.706Z,5.90
2022-12-31T05:57:35.370Z,5.96
2022-12-31T06:02:38.161Z,6.04
2022-12-31T06:07:40.979Z,6.10
2022-12-31T06:12:43.604Z,6.16
2022-12-31T06:17:46.340Z,6.21
2022-12-31T06:22:49.009Z,6.28
2022-12-31T06:27:51.651Z,6.36
2022-12-31T06:32:55.724Z,6.41
2022-12-31T06:37:58.398Z,6.44
2022-12-31T06:43:01.272Z,6.49
2022-12-31T06:48:04.333Z,6.53
2022-12-31T06:53:08.136Z,6.58
2022-12-31T06:58:13.643Z,6.63
2022-12-31T07:03:27.514Z,6.68
2022-12-31T07:08:33.206Z,6.72
2022-12-31T07:13:46.320Z,6.77
2022-12-31T07:19:04.959Z,6.83
2022-12-31T07:24:09.842Z,6.89
2022-12-31T07:29:16.487Z,6.91
2022-12-31T07:34:35.578Z,6.96
2022-12-31T07:39:45.878Z,7.04
2022-12-31T07:44:58.546Z,7.11
2022-12-31T07:50:01.468Z,7.18
2022-12-31T07:55:04.463Z,7.23
2022-12-31T08:00:13.245Z,7.28
2022-12-31T08:05:24.698Z,7.34
2022-12-31T08:10:31.230Z,7.41
2022-12-31T08:15:38.043Z,7.50
2022-12-31T08:20:54.112Z,7.63
2022-12-31T08:25:59.861Z,7.83
2022-12-31T08:31:07.906Z,8.02
2022-12-31T08:36:25.981Z,8.18
2022-12-31T08:41:37.601Z,8.27
2022-12-31T08:47:03.417Z,8.29
2022-12-31T08:52:14.751Z,8.27
2022-12-31T08:57:21.411Z,8.27
2022-12-31T09:02:28.971Z,8.30
2022-12-31T09:07:37.926Z,8.37
2022-12-31T09:13:02.970Z,8.45
2022-12-31T09:18:06.001Z,8.58
2022-12-31T09:23:08.924Z,8.74
2022-12-31T09:28:18.037Z,8.98
2022-12-31T09:33:39.018Z,9.09
2022-12-31T09:38:47.648Z,9.16
2022-12-31T09:44:03.806Z,9.14
2022-12-31T09:49:09.283Z,9.09
2022-12-31T09:54:30.539Z,9.07
2022-12-31T09:59:38.996Z,9.12
2022-12-31T10:04:52.252Z,9.19
2022-12-31T10:10:04.016Z,9.29
2022-12-31T10:15:29.474Z,9.41
2022-12-31T10:20:48.170Z,9.44
2022-12-31T10:25:55.771Z,9.43
2022-12-31T10:31:13.245Z,9.48
2022-12-31T10:36:30.157Z,9.58
2022-12-31T10:41:48.835Z,9.79
2022-12-31T10:46:54.575Z,9.85
2022-12-31T10:51:59.321Z,9.79
2022-12-31T10:57:07.221Z,9.70
2022-12-31T11:02:14.078Z,9.59
2022-12-31T11:07:40.031Z,9.54
2022-12-31T11:12:45.691Z,9.48
2022-12-31T11:17:52.273Z,9.47
2022-12-31T11:22:59.780Z,9.46
2022-12-31T11:28:02.424Z,9.49
2022-12-31T11:33:10.876Z,9.53
2022-12-31T11:38:16.508Z,9.64
2022-12-31T11:43:39.525Z,9.65
2022-12-31T11:48:47.043Z,9.65
2022-12-31T11:53:50.698Z,9.73
2022-12-31T11:58:55.458Z,9.84
2022-12-31T12:03:58.314Z,9.97
2022-12-31T12:09:05.655Z,9.94
2022-12-31T12:14:14.299Z,9.86
2022-12-31T12:19:18.527Z,9.76
2022-12-31T12:24:27.077Z,9.70
2022-12-31T12:29:34.421Z,9.66
2022-12-31T12:34:40.154Z,9.66
2022-12-31T12:40:00.840Z,9.67
2022-12-31T12:45:27.625Z,9.75
2022-12-31T12:50:46.173Z,9.80
2022-12-31T12:55:54.916Z,9.88
2022-12-31T13:01:10.874Z,9.95
2022-12-31T13:06:16.906Z,9.96
2022-12-31T13:11:33.086Z,10.04
2022-12-31T13:16:36.564Z,10.12
2022-12-31T13:21:46.688Z,10.19
2022-12-31T13:26:53.331Z,10.21
2022-12-31T13:31:57.774Z,10.26
2022-12-31T13:37:06.876Z,10.34
2022-12-31T13:42:19.535Z,10.41
2022-12-31T13:47:32.682Z,10.44
2022-12-31T13:52:42.861Z,10.49
2022-12-31T13:57:52.729Z,10.62
2022-12-31T14:02:59.337Z,10.80
2022-12-31T14:08:05.582Z,10.84
2022-12-31T14:13:20.761Z,10.84
2022-12-31T14:18:32.615Z,10.81
2022-12-31T14:23:36.253Z,10.81
2022-12-31T14:28:48.016Z,10.84
2022-12-31T14:34:19.042Z,10.89
2022-12-31T14:39:23.657Z,10.94
2022-12-31T14:44:36.655Z,11.00
2022-12-31T14:49:49.937Z,11.06
2022-12-31T14:54:58.486Z,11.14
2022-12-31T15:00:22.020Z,11.19
2022-12-31T15:05:28.405Z,11.30
2022-12-31T15:10:35.036Z,11.40
2022-12-31T15:16:00.806Z,11.49
2022-12-31T15:21:09.547Z,11.59
2022-12-31T15:26:22.281Z,11.67
2022-12-31T15:38:18.456Z,11.80
2022-12-31T15:43:24.019Z,11.84
2022-12-31T15:48:50.271Z,11.91
2022-12-31T15:53:58.304Z,11.97
2022-12-31T15:59:03.734Z,12.02
2022-12-31T16:04:14.600Z,12.05
2022-12-31T16:09:30.939Z,12.05
2022-12-31T16:14:37.358Z,12.08
2022-12-31T16:19:44.470Z,12.09
2022-12-31T16:25:29.125Z,12.14
2022-12-31T16:30:22.575Z,12.19
2022-12-31T16:35:27.459Z,12.23
2022-12-31T16:40:30.495Z,12.25
2022-12-31T16:45:35.666Z,12.21
2022-12-31T16:50:38.556Z,12.18
2022-12-31T16:55:41.456Z,12.18
2022-12-31T17:00:45.766Z,12.17
2022-12-31T17:06:12.480Z,12.21
2022-12-31T17:11:23.193Z,12.25
2022-12-31T17:16:27.112Z,12.30
2022-12-31T17:21:31.672Z,12.33
2022-12-31T17:26:38.290Z,12.35
2022-12-31T17:31:57.204Z,12.37
2022-12-31T17:36:59.835Z,12.38
2022-12-31T17:42:02.492Z,12.33
2022-12-31T17:47:06.028Z,12.22
2022-12-31T17:52:13.186Z,12.13
2022-12-31T17:57:25.719Z,12.13
2022-12-31T18:02:28.466Z,12.18
2022-12-31T18:07:31.274Z,12.21
2022-12-31T18:12:35.550Z,12.22
2022-12-31T18:17:38.176Z,12.23
2022-12-31T18:22:43.484Z,12.25
2022-12-31T18:27:46.363Z,12.21
2022-12-31T18:32:49.030Z,12.17
2022-12-31T18:37:51.803Z,12.14
2022-12-31T18:42:57.344Z,12.08
2022-12-31T18:48:04.134Z,12.03
2022-12-31T18:53:07.415Z,11.98
2022-12-31T18:58:11.301Z,11.93
2022-12-31T19:03:18.162Z,11.85
2022-12-31T19:08:22.767Z,11.80
2022-12-31T19:13:25.416Z,11.77
2022-12-31T19:18:28.056Z,11.71
2022-12-31T19:23:30.849Z,11.62
2022-12-31T19:28:33.497Z,11.58
2022-12-31T19:33:36.223Z,11.59
2022-12-31T19:38:38.831Z,11.63
2022-12-31T19:43:41.534Z,11.69
2022-12-31T19:48:45.684Z,11.73
2022-12-31T19:53:50.018Z,11.77
2022-12-31T19:58:52.644Z,11.81
2022-12-31T20:03:56.442Z,11.83
2022-12-31T20:08:59.237Z,11.91
2022-12-31T20:14:01.907Z,11.95
2022-12-31T20:19:05.916Z,12.00
2022-12-31T20:24:08.914Z,12.04
2022-12-31T20:29:11.626Z,12.03
2022-12-31T20:34:14.247Z,12.04
2022-12-31T20:39:17.260Z,12.05
2022-12-31T20:44:19.925Z,12.07
2022-12-31T20:49:37.508Z,12.11
2022-12-31T20:54:45.287Z,12.16
2022-12-31T20:59:47.998Z,12.21
2022-12-31T21:04:50.795Z,12.23
2022-12-31T21:09:53.578Z,12.22
2022-12-31T21:14:56.343Z,12.18
2022-12-31T21:19:58.952Z,12.17
2022-12-31T21:25:02.876Z,12.15
2022-12-31T21:30:21.569Z,12.11
2022-12-31T21:40:47.130Z,12.18
2022-12-31T21:46:01.017Z,12.26
2022-12-31T21:51:08.495Z,12.29
2022-12-31T21:56:13.576Z,12.36
2022-12-31T22:01:23.181Z,12.43
2022-12-31T22:06:26.226Z,12.48
2022-12-31T22:11:29.353Z,12.57
2022-12-31T22:16:32.028Z,12.59
2022-12-31T22:21:34.657Z,12.58
2022-12-31T22:26:40.363Z,12.59
2022-12-31T22:31:47.448Z,12.61
2022-12-31T22:36:50.064Z,12.65
2022-12-31T22:41:52.887Z,12.68
2022-12-31T22:46:56.331Z,12.72
2022-12-31T22:52:01.866Z,12.71
2022-12-31T22:57:10.359Z,12.71
2022-12-31T23:02:16.491Z,12.71
2022-12-31T23:07:19.412Z,12.74
2022-12-31T23:12:22.384Z,12.78
2022-12-31T23:17:32.016Z,12.87
2022-12-31T23:22:38.025Z,12.99
2022-12-31T23:27:40.723Z,13.13
2022-12-31T23:32:43.518Z,13.31
2022-12-31T23:37:46.220Z,13.48
2022-12-31T23:42:50.474Z,13.61
2022-12-31T23:47:53.112Z,13.70
2022-12-31T23:52:56.038Z,13.79
2022-12-31T23:57:58.721Z,13.86
